Am Falls, Idaho
Current Conditions -  °F | °C
As of 8:53 AM on Saturday 20 Dec 2014 (Local Time) from KPIH Reporting Station
Overcast Overcast  
Wind Chill: 33°   Ceiling: 2700
Heat Index: 37°   Visibility: 10mi
Dew Point: 33°   Wind: 5mph
Humidity: 86%   Direction: 180°S
Pressure: 30.05"   Gusts: NA
Location:  42.8287°N, 113.023°W
Report Text: KPIH 201553Z 18004KT 10SM BKN027 OVC039 03/01 A3005 RMK AO2 SLP186 T00280006
Loading
Personal Weather Stations






























Interactive Weather Map New forecast layout! Learn more

10-Day Weather Forecast

Advertisements
Track Severe Weather on mobile